Time;durP1;ratioP1;P1;durP2;ratioP2;P2;SDS_P1;SDS_P2;PMS_P1;PMS_P2;Temp;Humidity;BMP_temperature;BMP_pressure;BME280_temperature;BME280_humidity;BME280_pressure;Samples;Min_cycle;Max_cycle;Signal;HPM_P1;HPM_P2
2023/07/03 00:01:49;;;;;;;18.88;3.20;;;;;;;24.28;46.78;100990.03;5087529;28;20025;-68
2023/07/03 00:04:15;;;;;;;12.38;3.17;;;;;;;24.86;45.67;100985.31;5072508;28;20021;-68
2023/07/03 00:06:40;;;;;;;17.42;2.75;;;;;;;26.94;41.05;100981.22;5076544;28;20383;-68
2023/07/03 00:09:06;;;;;;;20.02;3.15;;;;;;;24.54;45.30;100990.97;5090721;28;20768;-69
2023/07/03 00:11:32;;;;;;;9.45;2.72;;;;;;;24.51;45.36;100985.84;5090018;28;20032;-69
2023/07/03 00:13:58;;;;;;;17.27;3.38;;;;;;;24.69;44.73;100980.28;5085211;28;20514;-68
2023/07/03 00:16:23;;;;;;;19.52;2.83;;;;;;;23.66;46.44;100982.41;5071925;28;20040;-69
2023/07/03 00:18:49;;;;;;;20.80;3.25;;;;;;;24.80;44.50;100984.88;5078525;28;20503;-68
2023/07/03 00:21:14;;;;;;;25.75;3.20;;;;;;;24.09;46.03;100977.03;5076634;28;20051;-68
2023/07/03 00:23:40;;;;;;;14.20;3.10;;;;;;;23.63;47.03;100982.59;5087720;28;20381;-68
2023/07/03 00:26:05;;;;;;;19.65;2.65;;;;;;;25.09;43.88;100984.69;5071478;28;20541;-69
2023/07/03 00:28:31;;;;;;;13.68;2.55;;;;;;;25.85;42.84;100988.31;5077192;28;20062;-68
2023/07/03 00:30:57;;;;;;;18.85;4.10;;;;;;;23.71;46.40;100988.28;5071676;28;20476;-68
2023/07/03 00:33:22;;;;;;;18.27;3.25;;;;;;;24.16;46.20;100975.66;5085381;28;20559;-69
2023/07/03 00:35:50;;;;;;;17.27;4.40;;;;;;;25.21;44.16;100979.38;5083233;28;20151;-68
2023/07/03 00:38:16;;;;;;;20.85;3.55;;;;;;;24.67;45.04;100990.19;5090065;28;20031;-69
2023/07/03 00:40:41;;;;;;;17.52;3.55;;;;;;;26.08;42.10;100974.13;5090881;28;20016;-68
2023/07/03 00:43:07;;;;;;;15.30;2.65;;;;;;;24.24;46.71;100983.19;5089566;28;20212;-69
2023/07/03 00:45:33;;;;;;;14.82;2.53;;;;;;;25.07;44.21;100987.47;5086221;28;20503;-68
2023/07/03 00:47:59;;;;;;;22.17;4.72;;;;;;;24.51;45.54;100987.66;5076069;28;20111;-68
2023/07/03 00:50:24;;;;;;;16.55;3.00;;;;;;;25.39;44.07;100981.75;5089457;28;20066;-69
2023/07/03 00:52:58;;;;;;;11.57;2.88;;;;;;;24.99;44.58;100989.81;5090305;28;20032;-68
2023/07/03 00:55:24;;;;;;;14.10;3.05;;;;;;;24.52;45.44;100984.03;5075949;28;20124;-68
2023/07/03 00:57:50;;;;;;;12.07;3.40;;;;;;;23.83;47.58;100995.53;5048994;28;20108;-67
2023/07/03 01:00:16;;;;;;;18.75;2.50;;;;;;;25.20;44.46;100985.69;5051286;28;20024;-68
2023/07/03 01:02:58;;;;;;;19.77;3.28;;;;;;;25.28;44.86;100985.16;5041490;28;20030;-69
2023/07/03 01:05:34;;;;;;;13.05;2.85;;;;;;;25.83;42.95;100980.41;5052236;28;20496;-68
2023/07/03 01:08:00;;;;;;;13.25;2.42;;;;;;;26.29;42.43;100978.03;5052681;28;20036;-68
2023/07/03 01:10:29;;;;;;;12.43;3.15;;;;;;;26.34;42.15;100967.84;5052519;28;20028;-69
2023/07/03 01:13:06;;;;;;;13.88;2.65;;;;;;;24.43;46.46;100977.50;5049636;28;20025;-69
2023/07/03 01:15:36;;;;;;;16.67;3.70;;;;;;;25.91;43.18;100972.66;5052658;28;20032;-69
2023/07/03 01:18:05;;;;;;;12.70;2.47;;;;;;;25.62;43.29;100976.59;5049872;28;20056;-68
2023/07/03 01:20:34;;;;;;;20.77;3.70;;;;;;;25.44;43.98;100976.91;5053061;28;20472;-68
2023/07/03 01:23:39;;;;;;;23.50;3.38;;;;;;;25.47;44.15;100968.69;5050814;28;20024;-68
2023/07/03 01:26:05;;;;;;;20.27;3.67;;;;;;;26.08;42.57;100967.94;5068638;28;20024;-68
2023/07/03 01:28:34;;;;;;;26.25;4.07;;;;;;;24.90;44.61;100976.13;5069401;28;20174;-68
2023/07/03 01:31:07;;;;;;;19.08;2.95;;;;;;;24.88;44.48;100972.72;5050859;28;20024;-68
2023/07/03 01:33:34;;;;;;;16.33;3.97;;;;;;;24.73;45.13;100968.41;5052790;28;20115;-69
2023/07/03 01:36:01;;;;;;;25.67;3.58;;;;;;;24.75;45.01;100973.66;5052117;28;20079;-69
2023/07/03 01:38:29;;;;;;;22.30;3.60;;;;;;;25.77;43.21;100978.16;5050861;28;20029;-68
2023/07/03 01:40:57;;;;;;;29.27;3.97;;;;;;;24.89;44.83;100974.44;5051506;28;20031;-69
2023/07/03 01:43:23;;;;;;;16.67;2.47;;;;;;;25.38;43.89;100975.53;5042764;28;20143;-67
2023/07/03 01:45:48;;;;;;;15.45;2.60;;;;;;;25.46;43.87;100971.44;5031631;28;20590;-67
2023/07/03 01:48:16;;;;;;;13.55;2.80;;;;;;;25.89;42.94;100969.22;5033772;28;20069;-67
2023/07/03 01:50:43;;;;;;;15.15;3.30;;;;;;;24.78;45.25;100970.75;5047099;28;20036;-67
2023/07/03 01:53:17;;;;;;;17.90;3.63;;;;;;;24.03;46.69;100966.75;5050568;28;20036;-66
2023/07/03 01:55:56;;;;;;;19.08;3.20;;;;;;;25.08;44.47;100967.81;5080417;28;20047;-67
2023/07/03 01:58:32;;;;;;;13.88;2.63;;;;;;;25.26;43.82;100968.34;5084633;28;20031;-67
2023/07/03 02:01:07;;;;;;;16.95;3.55;;;;;;;25.83;42.64;100969.69;5074928;28;20068;-67
2023/07/03 02:03:58;;;;;;;11.55;2.90;;;;;;;24.94;42.98;100971.44;5088533;28;20113;-67
2023/07/03 02:06:28;;;;;;;14.27;2.85;;;;;;;25.88;40.96;100967.53;5086649;28;20399;-69
2023/07/03 02:08:54;;;;;;;13.35;3.45;;;;;;;26.42;40.15;100965.44;5101445;28;20388;-67
2023/07/03 02:11:22;;;;;;;11.90;2.63;;;;;;;25.56;41.51;100973.38;5084134;28;20035;-67
2023/07/03 02:13:48;;;;;;;12.00;3.13;;;;;;;25.08;41.91;100966.97;5087995;28;20024;-69
2023/07/03 02:16:15;;;;;;;19.48;2.67;;;;;;;25.74;39.72;100967.66;5069829;28;20577;-70
2023/07/03 02:18:46;;;;;;;10.55;1.85;;;;;;;26.42;37.84;100960.06;5069963;28;20081;-67
2023/07/03 02:21:12;;;;;;;13.75;1.95;;;;;;;25.16;37.17;100967.28;5067565;28;20085;-69
2023/07/03 02:23:37;;;;;;;10.73;2.35;;;;;;;25.45;36.22;100965.25;5067867;28;20024;-69
2023/07/03 02:26:03;;;;;;;7.78;2.00;;;;;;;25.36;36.71;100955.19;5083770;28;20024;-70
2023/07/03 02:28:28;;;;;;;9.10;1.92;;;;;;;25.70;35.84;100958.16;5088234;28;20119;-69
2023/07/03 02:30:54;;;;;;;4.60;1.58;;;;;;;26.68;33.81;100959.91;5078865;28;20039;-69
2023/07/03 02:33:19;;;;;;;7.93;2.00;;;;;;;25.61;34.51;100967.72;5088593;28;20388;-69
2023/07/03 02:35:44;;;;;;;7.47;1.55;;;;;;;25.57;34.55;100972.41;5085947;28;20501;-69
2023/07/03 02:38:10;;;;;;;9.15;1.58;;;;;;;26.53;32.95;100957.44;5088838;28;20081;-69
2023/07/03 02:40:37;;;;;;;4.03;1.85;;;;;;;24.96;34.11;100963.31;5087377;28;20031;-69
2023/07/03 02:43:03;;;;;;;8.27;1.40;;;;;;;26.33;32.64;100955.41;5075149;28;20430;-69
2023/07/03 02:45:36;;;;;;;7.63;2.25;;;;;;;26.21;32.60;100962.50;5076209;28;20020;-67
2023/07/03 02:48:02;;;;;;;5.00;1.23;;;;;;;26.40;32.46;100972.72;5087197;28;20027;-69
2023/07/03 02:50:27;;;;;;;11.35;2.55;;;;;;;25.62;32.82;100971.22;5087397;28;20024;-68
2023/07/03 02:52:52;;;;;;;8.07;2.38;;;;;;;25.11;31.46;100964.91;5087946;28;20073;-67
2023/07/03 02:55:18;;;;;;;5.68;1.60;;;;;;;25.44;30.94;100968.88;5086619;28;20395;-67
2023/07/03 02:57:43;;;;;;;7.88;1.50;;;;;;;25.67;30.48;100961.06;5076623;28;20024;-68
2023/07/03 03:00:11;;;;;;;7.78;1.50;;;;;;;25.79;29.92;100962.84;5066871;28;20027;-68
2023/07/03 03:02:36;;;;;;;6.00;0.90;;;;;;;25.91;30.35;100966.44;5068831;28;20024;-68
2023/07/03 03:05:02;;;;;;;4.45;1.25;;;;;;;24.97;30.76;100973.03;5086729;28;20484;-68
2023/07/03 03:07:27;;;;;;;9.25;1.40;;;;;;;25.31;29.90;100962.69;5089948;28;20028;-69
2023/07/03 03:09:53;;;;;;;4.28;1.00;;;;;;;25.67;29.62;100953.03;5084451;28;20023;-69
2023/07/03 03:12:18;;;;;;;1.88;0.80;;;;;;;25.55;29.63;100944.91;5087250;28;20466;-68
2023/07/03 03:14:44;;;;;;;5.13;1.10;;;;;;;25.77;29.09;100951.38;5088231;28;20031;-68
2023/07/03 03:17:09;;;;;;;4.40;1.02;;;;;;;25.57;29.67;100953.69;5086726;28;20028;-68
2023/07/03 03:19:34;;;;;;;3.40;1.08;;;;;;;25.19;29.47;100951.00;5089580;28;20475;-68
2023/07/03 03:22:00;;;;;;;2.72;0.95;;;;;;;26.09;28.89;100948.22;5087903;28;20109;-68
2023/07/03 03:24:26;;;;;;;5.97;1.15;;;;;;;25.71;29.54;100960.72;5087925;28;20028;-68
2023/07/03 03:26:51;;;;;;;6.88;1.17;;;;;;;24.47;31.27;100957.63;5086880;28;20115;-67
2023/07/03 03:29:17;;;;;;;6.07;1.00;;;;;;;24.72;31.43;100950.66;5089432;28;20518;-67
2023/07/03 03:31:42;;;;;;;6.45;1.25;;;;;;;24.63;32.18;100952.13;5086705;28;20043;-67
2023/07/03 03:34:08;;;;;;;6.90;1.23;;;;;;;24.29;33.21;100961.50;5088054;28;20100;-68
2023/07/03 03:36:33;;;;;;;3.30;0.57;;;;;;;24.10;33.24;100962.72;5087169;28;20503;-67
2023/07/03 03:38:58;;;;;;;4.95;1.02;;;;;;;25.46;31.33;100956.28;5086273;28;20031;-67
2023/07/03 03:41:24;;;;;;;5.43;1.00;;;;;;;24.73;32.34;100955.06;5074901;28;20035;-67
2023/07/03 03:43:50;;;;;;;11.45;1.08;;;;;;;23.77;33.42;100963.91;5087295;28;20026;-68
2023/07/03 03:46:15;;;;;;;3.35;1.02;;;;;;;24.49;32.27;100950.34;5085276;28;20399;-68
2023/07/03 03:48:41;;;;;;;6.50;1.27;;;;;;;24.75;31.90;100961.13;5079014;28;20388;-68
2023/07/03 03:51:06;;;;;;;4.88;1.08;;;;;;;25.33;31.21;100961.63;5068397;28;20029;-68
2023/07/03 03:53:32;;;;;;;4.25;0.93;;;;;;;25.14;31.56;100962.03;5067078;28;20035;-68
2023/07/03 03:55:57;;;;;;;2.28;0.90;;;;;;;25.49;30.55;100964.06;5082134;28;20193;-67
2023/07/03 03:58:22;;;;;;;4.55;0.85;;;;;;;24.87;31.67;100964.81;5081662;28;20020;-67
2023/07/03 04:00:50;;;;;;;4.53;0.90;;;;;;;24.90;32.20;100970.78;5073922;28;20040;-67
2023/07/03 04:03:16;;;;;;;3.28;0.70;;;;;;;24.73;32.28;100968.41;5071383;28;20084;-68
2023/07/03 04:05:42;;;;;;;8.48;1.23;;;;;;;24.17;33.42;100972.03;5083363;28;20036;-67
2023/07/03 04:08:09;;;;;;;7.32;1.30;;;;;;;24.28;33.26;100975.84;5072938;28;20081;-68
2023/07/03 04:10:34;;;;;;;1.38;0.80;;;;;;;24.48;33.14;100970.03;5088888;28;20081;-68
2023/07/03 04:13:00;;;;;;;5.50;0.85;;;;;;;25.29;32.39;100964.59;5089512;28;20035;-67
2023/07/03 04:15:25;;;;;;;4.60;0.82;;;;;;;24.59;33.30;100963.94;5091113;28;20081;-67
2023/07/03 04:17:51;;;;;;;4.07;1.05;;;;;;;24.97;32.67;100970.38;5090233;28;20027;-68
2023/07/03 04:20:17;;;;;;;4.13;1.15;;;;;;;25.78;31.93;100969.16;5089863;28;20104;-68
2023/07/03 04:22:44;;;;;;;5.00;1.00;;;;;;;25.24;32.51;100972.94;5089791;28;20036;-68
2023/07/03 04:25:10;;;;;;;11.07;1.10;;;;;;;25.41;31.93;100974.47;5090763;28;20035;-67
2023/07/03 04:27:36;;;;;;;8.52;1.00;;;;;;;24.74;33.24;100975.44;5090368;28;20539;-68
2023/07/03 04:30:04;;;;;;;7.93;1.23;;;;;;;24.87;32.74;100978.16;5089935;28;20029;-67
2023/07/03 04:32:29;;;;;;;6.78;0.77;;;;;;;25.42;32.47;100981.53;5090424;28;20051;-68
2023/07/03 04:34:57;;;;;;;10.50;1.33;;;;;;;25.86;31.79;100985.53;5084726;28;20501;-68
2023/07/03 04:37:26;;;;;;;5.63;1.02;;;;;;;25.75;32.11;100974.75;5088159;28;20036;-68
2023/07/03 04:39:53;;;;;;;9.85;1.35;;;;;;;25.48;32.13;100986.44;5089900;28;20058;-67
2023/07/03 04:42:18;;;;;;;4.50;1.17;;;;;;;25.24;32.55;100986.31;5087833;28;20491;-68
2023/07/03 04:44:43;;;;;;;5.20;1.15;;;;;;;26.06;31.90;100980.56;5081841;28;20035;-68
2023/07/03 04:47:09;;;;;;;5.00;1.10;;;;;;;25.29;32.70;100980.66;5074219;28;20036;-68
2023/07/03 04:49:34;;;;;;;7.10;1.02;;;;;;;26.12;31.49;100977.44;5069701;28;20032;-68
2023/07/03 04:52:00;;;;;;;2.97;1.15;;;;;;;24.69;33.68;100977.59;5071436;28;20522;-68
2023/07/03 04:54:27;;;;;;;9.60;1.65;;;;;;;26.15;31.77;100979.91;5066717;28;20076;-68
2023/07/03 04:56:53;;;;;;;5.25;1.10;;;;;;;25.36;32.84;100987.31;5050942;28;20054;-68
2023/07/03 04:59:19;;;;;;;5.97;1.35;;;;;;;25.20;33.02;100992.84;5033953;28;20037;-67
2023/07/03 05:01:44;;;;;;;3.83;1.27;;;;;;;24.68;33.82;100984.75;5041863;28;20047;-67
2023/07/03 05:04:11;;;;;;;7.57;1.92;;;;;;;25.64;32.61;100985.38;5051229;28;20036;-67
2023/07/03 05:06:36;;;;;;;5.07;1.10;;;;;;;25.01;33.79;100993.25;5051130;28;20112;-68
2023/07/03 05:09:03;;;;;;;5.60;1.33;;;;;;;24.90;33.89;100986.81;5032115;28;20104;-68
2023/07/03 05:11:29;;;;;;;4.32;1.15;;;;;;;25.64;33.17;100985.38;5032902;28;20114;-68
2023/07/03 05:13:55;;;;;;;3.83;0.90;;;;;;;25.16;33.72;101000.22;5032725;28;20068;-68
2023/07/03 05:16:21;;;;;;;6.38;1.10;;;;;;;24.55;34.46;100995.38;5034967;28;20012;-68
2023/07/03 05:18:46;;;;;;;7.53;1.65;;;;;;;23.08;36.47;100997.47;5052995;28;20081;-67
2023/07/03 05:21:12;;;;;;;2.42;0.90;;;;;;;24.78;34.27;100987.66;5049070;28;20493;-67
2023/07/03 05:23:37;;;;;;;5.45;0.93;;;;;;;25.42;33.64;100991.38;5052451;28;20030;-68
2023/07/03 05:26:03;;;;;;;9.18;1.42;;;;;;;25.81;32.70;101003.72;5070389;28;20016;-68
2023/07/03 05:28:30;;;;;;;5.53;1.30;;;;;;;24.80;34.72;101012.47;5037876;28;20039;-68
2023/07/03 05:30:57;;;;;;;5.47;0.80;;;;;;;25.76;32.76;101011.25;5035559;28;20041;-67
2023/07/03 05:33:23;;;;;;;5.78;1.08;;;;;;;25.90;33.01;101013.78;5039078;28;20017;-67
2023/07/03 05:35:49;;;;;;;5.45;1.05;;;;;;;24.99;34.23;101011.22;5037445;28;20028;-67
2023/07/03 05:38:14;;;;;;;4.15;1.45;;;;;;;25.11;34.60;101018.38;5034469;28;20043;-67
2023/07/03 05:40:39;;;;;;;10.40;1.52;;;;;;;25.10;34.35;101019.38;5057759;28;20074;-68
2023/07/03 05:43:05;;;;;;;7.57;1.55;;;;;;;24.38;35.58;101027.69;5051886;28;20122;-67
2023/07/03 05:45:30;;;;;;;8.25;1.20;;;;;;;24.78;35.55;101019.72;5050771;28;20020;-68
2023/07/03 05:47:56;;;;;;;5.15;1.40;;;;;;;24.94;34.71;101014.22;5048952;28;20027;-67
2023/07/03 05:50:21;;;;;;;7.15;1.15;;;;;;;25.54;34.33;101015.44;5051615;28;20121;-67
2023/07/03 05:52:47;;;;;;;5.43;1.10;;;;;;;23.91;36.62;101012.91;5051382;28;20074;-67
2023/07/03 05:55:12;;;;;;;3.45;1.10;;;;;;;25.64;34.11;101017.50;5061210;28;20048;-67
2023/07/03 05:57:38;;;;;;;7.47;1.33;;;;;;;24.43;35.22;101020.22;5088426;28;20028;-68
2023/07/03 06:00:13;;;;;;;5.47;1.38;;;;;;;24.19;35.41;101010.19;5072150;28;20039;-68
2023/07/03 06:02:40;;;;;;;6.25;1.45;;;;;;;24.32;35.09;101007.56;5069310;28;20243;-68
2023/07/03 06:05:06;;;;;;;3.97;0.95;;;;;;;25.37;33.71;101002.41;5080405;28;20043;-68
2023/07/03 06:07:31;;;;;;;9.05;1.15;;;;;;;24.71;33.95;101013.91;5086984;28;20044;-68
2023/07/03 06:09:57;;;;;;;7.22;1.17;;;;;;;24.60;34.16;101015.59;5080853;28;20032;-68
2023/07/03 06:12:25;;;;;;;4.40;0.85;;;;;;;25.14;33.35;101020.88;5084915;28;20032;-68
2023/07/03 06:14:50;;;;;;;5.35;1.33;;;;;;;25.54;32.83;101018.13;5078175;28;20161;-68
2023/07/03 06:17:16;;;;;;;7.18;1.23;;;;;;;25.89;32.41;101016.56;5082228;28;20519;-68
2023/07/03 06:19:41;;;;;;;4.40;1.02;;;;;;;25.69;33.14;101021.53;5088078;28;20032;-68
2023/07/03 06:22:07;;;;;;;9.38;1.25;;;;;;;26.22;32.19;101009.78;5088520;28;20069;-68
2023/07/03 06:24:32;;;;;;;4.88;1.02;;;;;;;27.20;31.31;101009.56;5088543;28;20119;-68
2023/07/03 06:26:58;;;;;;;4.68;1.17;;;;;;;26.82;31.61;101009.81;5085845;28;20035;-68
2023/07/03 06:29:23;;;;;;;9.82;1.80;;;;;;;27.13;30.45;101007.47;5068204;28;20028;-68
2023/07/03 06:31:49;;;;;;;3.17;1.20;;;;;;;26.44;31.63;101009.03;5067958;28;20032;-67
2023/07/03 06:34:14;;;;;;;7.95;1.83;;;;;;;26.95;30.74;101007.06;5070155;28;20031;-69
2023/07/03 06:36:40;;;;;;;6.43;1.10;;;;;;;27.15;30.87;101011.75;5076912;28;20024;-68
2023/07/03 06:39:05;;;;;;;4.57;1.23;;;;;;;26.92;31.66;101022.41;5078472;28;20071;-69
2023/07/03 06:41:33;;;;;;;6.13;1.17;;;;;;;26.31;31.66;101032.34;5068749;28;20485;-68
2023/07/03 06:43:59;;;;;;;8.93;1.30;;;;;;;26.62;31.58;101020.19;5067854;28;20032;-68
2023/07/03 06:46:25;;;;;;;5.28;1.13;;;;;;;26.69;31.57;101032.16;5069597;28;20031;-68
2023/07/03 06:48:52;;;;;;;6.47;1.27;;;;;;;27.39;30.76;101029.63;5073965;28;20055;-68
2023/07/03 06:51:18;;;;;;;6.70;1.65;;;;;;;29.18;28.91;101019.56;5088949;28;20280;-68
2023/07/03 06:53:43;;;;;;;7.55;1.25;;;;;;;27.85;29.75;101025.97;5089652;28;20099;-68
2023/07/03 06:56:09;;;;;;;4.10;0.95;;;;;;;28.41;28.43;101034.94;5075134;28;20569;-68
2023/07/03 06:58:35;;;;;;;5.55;1.50;;;;;;;27.59;30.03;101026.22;5067918;28;20395;-68
2023/07/03 07:01:09;;;;;;;6.70;1.00;;;;;;;29.84;28.01;101029.13;5083715;28;20024;-68
2023/07/03 07:03:35;;;;;;;7.55;1.55;;;;;;;28.52;29.90;101024.16;5077732;28;20040;-68
2023/07/03 07:06:17;;;;;;;5.55;1.10;;;;;;;27.25;30.24;101022.63;5066283;28;20032;-68
2023/07/03 07:08:43;;;;;;;5.70;1.38;;;;;;;27.45;30.52;101029.16;5084032;28;20032;-68
2023/07/03 07:11:10;;;;;;;5.45;1.17;;;;;;;29.74;28.40;101029.09;5076302;28;20034;-68
2023/07/03 07:13:38;;;;;;;7.32;1.33;;;;;;;28.57;30.14;101027.31;5086391;28;20055;-68
2023/07/03 07:16:04;;;;;;;5.78;1.20;;;;;;;29.70;28.26;101030.34;5074960;28;20021;-68
2023/07/03 07:18:29;;;;;;;6.85;1.40;;;;;;;29.26;28.92;101028.75;5071471;28;20335;-68
2023/07/03 07:20:55;;;;;;;12.32;1.70;;;;;;;27.14;31.10;101028.81;5072804;28;20075;-68
2023/07/03 07:23:20;;;;;;;7.93;1.20;;;;;;;27.59;31.89;101028.91;5077019;28;20033;-68
2023/07/03 07:25:53;;;;;;;4.35;1.10;;;;;;;29.80;27.25;101036.66;5073843;28;20024;-68
2023/07/03 07:28:18;;;;;;;6.95;1.42;;;;;;;29.00;27.69;101030.06;5072365;28;20064;-68
2023/07/03 07:30:44;;;;;;;6.30;1.02;;;;;;;28.46;27.78;101046.16;5067100;28;20531;-68
2023/07/03 07:33:09;;;;;;;11.82;1.00;;;;;;;27.73;28.62;101048.44;5069633;28;20028;-68
2023/07/03 07:35:35;;;;;;;7.85;0.95;;;;;;;29.55;26.11;101049.56;5083822;28;20038;-68
2023/07/03 07:38:01;;;;;;;1.80;0.70;;;;;;;27.20;28.36;101041.78;5087631;28;20509;-66
2023/07/03 07:40:26;;;;;;;4.70;1.13;;;;;;;30.46;25.92;101048.78;5083430;28;20024;-68
2023/07/03 07:42:51;;;;;;;6.00;1.30;;;;;;;29.69;25.65;101039.41;5083182;28;20060;-68
2023/07/03 07:45:17;;;;;;;3.15;0.90;;;;;;;27.65;27.58;101050.88;5083369;28;20107;-68
2023/07/03 07:47:42;;;;;;;2.67;0.90;;;;;;;28.48;27.72;101048.72;5086127;28;20372;-69
2023/07/03 07:50:08;;;;;;;3.08;1.00;;;;;;;29.71;26.92;101041.00;5091037;28;20028;-69
2023/07/03 07:52:33;;;;;;;3.15;1.00;;;;;;;26.56;30.35;101059.03;5090798;28;20028;-68
2023/07/03 07:54:59;;;;;;;6.28;1.13;;;;;;;28.60;28.24;101047.69;5086902;28;20360;-68
2023/07/03 07:57:28;;;;;;;4.22;1.10;;;;;;;27.83;29.21;101046.72;5088201;28;20024;-68
2023/07/03 07:59:53;;;;;;;3.80;1.08;;;;;;;29.75;26.59;101055.03;5087078;28;20085;-68
2023/07/03 08:02:19;;;;;;;4.03;1.08;;;;;;;28.89;28.07;101053.38;5073928;28;20032;-68
2023/07/03 08:04:44;;;;;;;2.78;0.73;;;;;;;26.53;29.99;101061.94;5078205;28;20438;-68
2023/07/03 08:07:10;;;;;;;12.20;1.65;;;;;;;27.30;29.83;101051.75;5089896;28;20059;-68
2023/07/03 08:09:35;;;;;;;7.43;1.30;;;;;;;25.68;31.65;101056.44;5089862;28;20024;-69
2023/07/03 08:12:02;;;;;;;6.60;0.88;;;;;;;26.96;29.81;101059.75;5088923;28;20127;-68
2023/07/03 08:14:28;;;;;;;4.57;0.93;;;;;;;27.55;28.17;101062.34;5082854;28;20031;-69
2023/07/03 08:16:53;;;;;;;5.88;1.00;;;;;;;27.25;28.69;101061.03;5076313;28;20036;-68
2023/07/03 08:19:18;;;;;;;1.52;0.70;;;;;;;26.45;30.87;101075.06;5070926;28;20039;-68
2023/07/03 08:21:44;;;;;;;6.88;1.08;;;;;;;27.54;29.32;101065.97;5072124;28;20039;-68
2023/07/03 08:24:09;;;;;;;4.43;1.00;;;;;;;29.06;28.07;101062.69;5090010;28;20126;-69
2023/07/03 08:26:34;;;;;;;2.47;0.90;;;;;;;27.69;29.65;101073.81;5089985;28;20016;-68
2023/07/03 08:29:00;;;;;;;8.45;1.40;;;;;;;28.43;28.90;101071.47;5087962;28;20111;-69
2023/07/03 08:31:25;;;;;;;5.95;1.05;;;;;;;26.72;31.05;101077.56;5070672;28;20028;-68
2023/07/03 08:33:52;;;;;;;4.25;0.88;;;;;;;26.47;31.72;101080.31;5084180;28;20088;-69
2023/07/03 08:36:18;;;;;;;3.88;1.02;;;;;;;26.82;30.95;101075.03;5091873;28;20020;-69
2023/07/03 08:38:43;;;;;;;5.63;1.13;;;;;;;28.82;29.19;101067.47;5075955;28;20495;-69
2023/07/03 08:41:13;;;;;;;6.28;1.10;;;;;;;28.11;29.79;101071.41;5089075;28;20032;-69
2023/07/03 08:43:46;;;;;;;4.93;1.30;;;;;;;28.58;29.67;101076.56;5070491;28;20039;-69
2023/07/03 08:46:17;;;;;;;2.00;0.77;;;;;;;28.13;30.52;101066.75;5069702;28;20029;-68
2023/07/03 08:48:44;;;;;;;8.07;1.10;;;;;;;27.89;30.26;101075.78;5068832;28;20496;-68
2023/07/03 08:51:14;;;;;;;5.75;1.15;;;;;;;27.03;32.04;101071.72;5069505;28;20502;-68
2023/07/03 08:53:43;;;;;;;6.18;1.13;;;;;;;26.46;32.71;101074.09;5083981;28;20024;-68
2023/07/03 08:56:19;;;;;;;4.93;0.98;;;;;;;26.33;32.69;101084.00;5075634;28;20048;-68
2023/07/03 08:58:45;;;;;;;3.22;0.80;;;;;;;26.56;32.13;101075.13;5069599;28;20052;-68
2023/07/03 09:01:23;;;;;;;3.15;1.20;;;;;;;26.67;31.94;101086.88;5086905;28;20113;-68
2023/07/03 09:04:07;;;;;;;3.50;1.00;;;;;;;26.92;32.07;101081.41;5084173;28;20031;-67
2023/07/03 09:06:50;;;;;;;8.60;1.45;;;;;;;26.48;32.48;101082.88;5069315;28;20426;-68
2023/07/03 09:09:36;;;;;;;4.80;1.40;;;;;;;26.14;33.44;101088.00;5069010;28;20074;-68
2023/07/03 09:12:15;;;;;;;11.05;2.58;;;;;;;26.59;33.32;101085.59;5073876;28;20056;-68
2023/07/03 09:14:48;;;;;;;4.43;1.25;;;;;;;24.94;35.96;101098.91;5076195;28;20031;-68
2023/07/03 09:17:13;;;;;;;;;;;;;;;24.35;36.62;101110.69;5090138;28;20055;-67
2023/07/03 09:19:44;;;;;;;8.05;1.20;;;;;;;25.52;35.96;101108.34;5088644;28;19962;-68
2023/07/03 09:22:27;;;;;;;7.95;1.52;;;;;;;25.07;36.29;101107.81;5083634;28;20029;-68
2023/07/03 09:24:56;;;;;;;9.45;1.45;;;;;;;25.49;35.76;101111.25;5070151;28;20096;-68
2023/07/03 09:27:25;;;;;;;5.75;1.58;;;;;;;25.86;36.22;101094.44;5068782;28;20025;-68
2023/07/03 09:29:52;;;;;;;7.93;1.38;;;;;;;25.24;37.12;101099.50;5067453;28;20025;-67
2023/07/03 09:32:24;;;;;;;13.00;1.55;;;;;;;25.55;36.96;101094.78;5072806;28;20077;-68
2023/07/03 09:35:11;;;;;;;7.53;1.35;;;;;;;28.85;32.03;101080.63;5075287;28;20024;-68
2023/07/03 09:37:38;;;;;;;8.85;1.95;;;;;;;28.58;31.16;101088.16;5076554;28;20055;-68
2023/07/03 09:40:13;;;;;;;7.32;1.27;;;;;;;27.52;33.17;101086.75;5068185;28;20031;-68
2023/07/03 09:42:40;;;;;;;12.80;2.13;;;;;;;27.27;33.22;101090.41;5070720;28;20043;-67
2023/07/03 09:45:17;;;;;;;5.05;1.42;;;;;;;28.22;31.69;101097.38;5084211;28;20107;-68
2023/07/03 09:47:52;;;;;;;4.05;1.20;;;;;;;30.10;28.36;101091.50;5079067;28;20527;-68
2023/07/03 09:50:26;;;;;;;3.72;1.17;;;;;;;30.86;27.99;101082.00;5077029;28;20043;-68
2023/07/03 09:52:54;;;;;;;6.00;1.48;;;;;;;30.73;28.09;101099.31;5077556;28;20090;-68
2023/07/03 09:55:21;;;;;;;7.13;1.40;;;;;;;29.99;28.95;101094.28;5087150;28;20504;-68
2023/07/03 09:57:47;;;;;;;7.03;1.65;;;;;;;28.19;31.50;101097.63;5077679;28;20032;-67
2023/07/03 10:00:16;;;;;;;7.97;1.50;;;;;;;27.15;33.05;101089.53;5082672;28;20031;-67
2023/07/03 10:02:45;;;;;;;6.60;1.10;;;;;;;27.79;32.51;101096.28;5070067;28;20028;-67
2023/07/03 10:05:15;;;;;;;6.88;2.03;;;;;;;26.66;33.73;101090.53;5073335;28;20389;-67
2023/07/03 10:07:43;;;;;;;5.20;1.08;;;;;;;28.05;30.83;101091.53;5076795;28;20119;-68
2023/07/03 10:10:13;;;;;;;3.38;1.10;;;;;;;27.69;31.33;101089.94;5087258;28;20031;-68
2023/07/03 10:12:58;;;;;;;9.68;1.58;;;;;;;26.45;31.73;101117.06;5082255;28;20024;-67
2023/07/03 10:15:29;;;;;;;8.88;1.10;;;;;;;25.52;33.04;101116.38;5087255;28;20081;-68
2023/07/03 10:18:02;;;;;;;7.50;1.20;;;;;;;26.37;32.00;101117.63;5075470;28;20028;-67
2023/07/03 10:20:39;;;;;;;8.88;0.80;;;;;;;25.64;32.05;101106.66;5086359;28;20065;-67
2023/07/03 10:23:09;;;;;;;4.28;0.98;;;;;;;25.95;32.09;101131.25;5080578;28;20036;-67
2023/07/03 10:25:39;;;;;;;5.30;1.30;;;;;;;24.95;33.80;101122.00;5089135;28;20078;-67
2023/07/03 10:28:12;;;;;;;9.27;1.25;;;;;;;24.85;33.35;101133.31;5087960;28;20027;-67
2023/07/03 10:30:39;;;;;;;3.63;1.40;;;;;;;26.10;32.83;101137.38;5088464;28;20032;-67
2023/07/03 10:33:11;;;;;;;3.58;1.13;;;;;;;26.22;32.93;101149.06;5077623;28;20047;-68
2023/07/03 10:35:41;;;;;;;5.45;1.08;;;;;;;25.18;33.09;101140.06;5068468;28;20507;-67
2023/07/03 10:38:26;;;;;;;3.22;1.00;;;;;;;25.89;31.67;101140.59;5076028;28;20032;-67
2023/07/03 10:41:14;;;;;;;5.38;1.02;;;;;;;25.64;32.39;101145.94;5086501;28;20392;-68
2023/07/03 10:43:46;;;;;;;6.50;1.40;;;;;;;24.86;34.41;101140.34;5089294;28;20488;-68
2023/07/03 10:46:21;;;;;;;7.90;1.50;;;;;;;28.21;30.19;101128.78;5087851;28;20391;-68
2023/07/03 10:48:51;;;;;;;7.05;1.08;;;;;;;30.48;28.57;101130.38;5069029;28;20038;-67
2023/07/03 10:51:20;;;;;;;1.95;0.80;;;;;;;28.69;29.24;101126.81;5068132;28;20439;-67
2023/07/03 10:53:56;;;;;;;6.18;1.52;;;;;;;29.09;28.75;101128.84;5068760;28;20090;-68
2023/07/03 10:56:43;;;;;;;9.45;1.33;;;;;;;27.48;30.65;101125.53;5069151;28;20033;-67
2023/07/03 10:59:21;;;;;;;4.03;0.85;;;;;;;28.68;30.21;101119.72;5074633;28;20038;-68
2023/07/03 11:01:53;;;;;;;3.50;1.20;;;;;;;29.14;28.68;101115.88;5081325;28;20038;-67
2023/07/03 11:04:31;;;;;;;4.05;0.93;;;;;;;27.52;30.28;101116.25;5089167;28;20032;-68
2023/07/03 11:07:28;;;;;;;9.50;2.53;;;;;;;26.91;30.92;101127.13;5087588;28;20039;-68
2023/07/03 11:10:05;;;;;;;6.60;1.23;;;;;;;26.24;32.22;101123.88;5068637;28;20035;-68
2023/07/03 11:12:45;;;;;;;4.20;0.93;;;;;;;27.69;30.57;101114.94;5091277;28;20036;-68
2023/07/03 11:15:41;;;;;;;2.47;0.93;;;;;;;27.09;30.65;101124.88;5091161;28;20529;-68
2023/07/03 11:18:28;;;;;;;6.70;1.38;;;;;;;26.10;31.76;101134.72;5080502;28;20028;-67
2023/07/03 11:21:18;;;;;;;2.53;0.73;;;;;;;27.61;29.77;101119.22;5092463;28;20020;-68
2023/07/03 11:23:54;;;;;;;4.40;1.23;;;;;;;27.93;29.47;101117.53;5083933;28;20078;-68
2023/07/03 11:27:03;;;;;;;6.20;0.73;;;;;;;27.16;29.64;101125.25;5080866;28;20030;-67
2023/07/03 11:29:29;;;;;;;1.38;0.70;;;;;;;28.53;27.41;101122.63;5010141;28;20057;-68
2023/07/03 11:31:56;;;;;;;4.10;0.80;;;;;;;28.48;26.96;101130.22;4994150;28;20030;-67